Time;durP1;ratioP1;P1;durP2;ratioP2;P2;SDS_P1;SDS_P2;PMS_P1;PMS_P2;Temp;Humidity;BMP_temperature;BMP_pressure;BME280_temperature;BME280_humidity;BME280_pressure;Samples;Min_cycle;Max_cycle;Signal;HPM_P1;HPM_P2
2022/12/08 00:01:23;;;;;;;16.30;9.28;;;;;;;0.13;99.51;99622.95;1774913;79;21030;-74
2022/12/08 00:03:50;;;;;;;14.13;9.10;;;;;;;0.13;99.74;99616.42;1770024;79;21099;-75
2022/12/08 00:09:33;;;;;;;15.35;9.58;;;;;;;0.28;99.19;99618.47;1767628;81;21092;-76
2022/12/08 00:12:09;;;;;;;15.13;8.38;;;;;;;0.22;99.42;99623.29;1767808;81;21006;-76
2022/12/08 00:14:41;;;;;;;12.28;8.55;;;;;;;0.18;99.79;99626.10;1779631;80;21017;-73
2022/12/08 00:17:10;;;;;;;13.78;9.40;;;;;;;0.30;99.30;99620.98;1770402;81;21200;-72
2022/12/08 00:19:38;;;;;;;13.32;9.00;;;;;;;0.38;99.13;99629.95;1769840;81;21002;-73
2022/12/08 00:22:06;;;;;;;13.62;9.55;;;;;;;0.34;99.16;99628.49;1774064;80;20978;-69
2022/12/08 00:24:34;;;;;;;14.63;9.00;;;;;;;0.31;99.41;99629.17;1777664;79;21069;-73
2022/12/08 00:27:01;;;;;;;13.10;8.58;;;;;;;0.36;99.42;99625.78;1769878;81;21523;-71
2022/12/08 00:29:28;;;;;;;12.03;8.85;;;;;;;0.49;98.99;99626.61;1771024;80;21053;-70
2022/12/08 00:31:54;;;;;;;13.50;9.75;;;;;;;0.46;98.87;99628.11;1775098;80;21075;-70
2022/12/08 00:34:21;;;;;;;12.45;8.35;;;;;;;0.40;99.14;99631.16;1769332;80;20974;-74
2022/12/08 00:36:47;;;;;;;12.03;7.90;;;;;;;0.36;99.31;99630.53;1775084;80;20978;-73
2022/12/08 00:39:15;;;;;;;12.05;8.83;;;;;;;0.46;98.97;99631.20;1779264;79;21013;-72
2022/12/08 00:44:27;;;;;;;11.93;8.65;;;;;;;0.49;98.71;99637.54;1791267;80;20955;-73
2022/12/08 00:46:53;;;;;;;11.48;8.75;;;;;;;0.43;99.08;99643.20;1763137;81;21049;-73
2022/12/08 00:49:20;;;;;;;12.10;7.83;;;;;;;0.44;99.00;99638.32;1765559;79;20987;-74
2022/12/08 00:51:46;;;;;;;13.35;9.55;;;;;;;0.53;98.57;99627.23;1779173;79;21192;-74
2022/12/08 00:54:13;;;;;;;14.75;9.83;;;;;;;0.53;98.47;99632.45;1774952;79;21066;-74
2022/12/08 00:56:39;;;;;;;14.93;10.08;;;;;;;0.45;98.79;99640.83;1762917;81;21005;-74
2022/12/08 00:59:07;;;;;;;12.23;8.88;;;;;;;0.41;99.06;99630.67;1763353;81;21033;-73
2022/12/08 01:01:34;;;;;;;11.90;8.50;;;;;;;0.46;98.87;99634.65;1766030;80;20983;-73
2022/12/08 01:04:08;;;;;;;11.53;8.28;;;;;;;0.50;98.42;99640.50;1759031;80;21022;-72
2022/12/08 01:06:35;;;;;;;12.18;8.78;;;;;;;0.44;98.74;99646.98;1753463;80;21115;-74
2022/12/08 01:09:03;;;;;;;11.53;8.08;;;;;;;0.39;98.85;99644.70;1742143;78;20964;-72
2022/12/08 01:11:29;;;;;;;10.30;7.72;;;;;;;0.40;98.73;99641.61;1770696;80;21785;-74
2022/12/08 01:13:56;;;;;;;12.45;8.95;;;;;;;0.49;98.21;99650.13;1776958;80;21055;-74
2022/12/08 01:16:27;;;;;;;11.95;8.63;;;;;;;0.45;98.18;99646.54;1767648;80;20987;-75
2022/12/08 01:18:54;;;;;;;15.70;9.55;;;;;;;0.38;98.66;99650.86;1761805;81;21117;-74
2022/12/08 01:21:20;;;;;;;14.60;9.90;;;;;;;0.36;98.69;99649.30;1732538;81;21011;-75
2022/12/08 01:23:47;;;;;;;15.78;11.15;;;;;;;0.45;98.39;99655.20;1759824;81;21015;-74
2022/12/08 01:26:15;;;;;;;14.53;9.68;;;;;;;0.49;98.16;99661.06;1786466;80;21584;-74
2022/12/08 01:28:42;;;;;;;14.10;10.50;;;;;;;0.41;98.45;99648.52;1762595;81;21005;-71
2022/12/08 01:31:16;;;;;;;11.83;8.65;;;;;;;0.36;98.45;99657.14;1783872;80;21084;-72
2022/12/08 01:33:43;;;;;;;12.30;9.30;;;;;;;0.45;98.20;99657.82;1767579;81;21029;-73
2022/12/08 01:36:20;;;;;;;12.55;8.75;;;;;;;0.50;98.13;99662.27;1766465;81;21033;-74
2022/12/08 01:38:47;;;;;;;12.15;9.55;;;;;;;0.46;98.34;99668.63;1767165;81;21053;-73
2022/12/08 01:41:15;;;;;;;12.20;9.40;;;;;;;0.40;98.39;99666.44;1790243;78;21005;-75
2022/12/08 01:44:00;;;;;;;21.12;9.40;;;;;;;0.42;98.35;99666.34;1755199;81;21556;-73
2022/12/08 01:46:29;;;;;;;11.53;9.18;;;;;;;0.54;97.85;99665.48;1725029;83;21033;-73
2022/12/08 01:49:04;;;;;;;12.45;9.90;;;;;;;0.52;97.66;99673.91;1757094;81;21017;-72
2022/12/08 01:51:34;;;;;;;14.98;10.20;;;;;;;0.45;97.84;99679.21;1724617;83;21097;-73
2022/12/08 01:54:01;;;;;;;13.48;9.68;;;;;;;0.44;98.00;99689.28;1754285;81;21013;-71
2022/12/08 01:56:41;;;;;;;15.23;11.25;;;;;;;0.51;97.72;99693.98;1755360;81;22166;-73
2022/12/08 01:59:08;;;;;;;14.95;12.10;;;;;;;0.45;97.80;99690.49;1759871;81;21013;-72
2022/12/08 02:01:34;;;;;;;16.35;11.57;;;;;;;0.34;98.04;99689.91;1754551;81;21093;-74
2022/12/08 02:04:03;;;;;;;20.27;12.98;;;;;;;0.35;98.11;99683.75;1746486;82;21549;-71
2022/12/08 02:06:34;;;;;;;17.12;15.05;;;;;;;0.44;97.78;99686.67;1741248;81;21029;-72
2022/12/08 02:09:00;;;;;;;17.70;13.93;;;;;;;0.42;97.82;99681.55;1739716;81;21158;-74
2022/12/08 02:11:27;;;;;;;17.42;13.55;;;;;;;0.34;98.22;99681.23;1752691;81;21501;-71
2022/12/08 02:13:54;;;;;;;16.80;11.45;;;;;;;0.31;98.58;99688.83;1752402;81;21071;-71
2022/12/08 02:16:49;;;;;;;14.63;10.85;;;;;;;0.42;98.37;99687.25;1752367;81;21053;-70
2022/12/08 02:19:36;;;;;;;16.57;11.12;;;;;;;0.49;98.04;99691.95;1728333;83;22021;-70
2022/12/08 02:22:13;;;;;;;14.55;10.53;;;;;;;0.39;98.10;99684.38;1736145;82;21085;-72
2022/12/08 02:25:08;;;;;;;13.70;11.38;;;;;;;0.35;98.27;99684.23;1736438;82;21486;-72
2022/12/08 02:28:02;;;;;;;13.83;10.10;;;;;;;0.44;97.90;99687.50;1737939;81;20993;-70
2022/12/08 02:30:55;;;;;;;14.25;10.28;;;;;;;0.39;98.18;99685.69;1738506;82;21117;-72
2022/12/08 02:33:48;;;;;;;13.68;10.55;;;;;;;0.32;98.25;99681.81;1736565;82;21033;-72
2022/12/08 02:36:26;;;;;;;12.78;10.13;;;;;;;0.41;97.98;99683.81;1673387;82;21275;-71
2022/12/08 02:39:07;;;;;;;14.45;10.25;;;;;;;0.44;97.88;99694.03;1736528;82;21533;-71
2022/12/08 02:41:56;;;;;;;12.40;9.65;;;;;;;0.37;97.99;99705.87;1743815;80;21117;-72
2022/12/08 02:44:46;;;;;;;11.63;9.60;;;;;;;0.34;98.10;99708.67;1776238;80;21074;-73
2022/12/08 02:47:18;;;;;;;15.75;11.80;;;;;;;0.37;98.05;99705.87;1770535;81;21095;-73
2022/12/08 02:49:44;;;;;;;13.95;9.73;;;;;;;0.30;98.49;99705.91;1770365;81;21162;-73
2022/12/08 02:52:20;;;;;;;12.53;10.13;;;;;;;0.30;98.56;99706.73;1770433;81;21017;-73
2022/12/08 02:54:55;;;;;;;13.80;10.65;;;;;;;0.39;98.17;99706.12;1770202;81;21512;-72
2022/12/08 02:58:02;;;;;;;14.20;10.82;;;;;;;0.39;98.04;99702.68;1770888;81;20994;-73
2022/12/08 03:00:32;;;;;;;13.98;10.90;;;;;;;0.25;98.30;99696.23;1771765;80;21061;-72
2022/12/08 03:03:10;;;;;;;14.03;11.35;;;;;;;0.32;98.57;99714.48;1789597;80;21204;-71
2022/12/08 03:05:57;;;;;;;15.35;11.12;;;;;;;0.41;98.16;99716.48;1761292;81;21053;-71
2022/12/08 03:08:41;;;;;;;14.28;11.33;;;;;;;0.33;98.32;99719.61;1761726;81;20982;-74
2022/12/08 03:11:12;;;;;;;17.20;11.57;;;;;;;0.26;98.65;99720.95;1782784;80;21005;-72
2022/12/08 03:13:44;;;;;;;16.62;11.43;;;;;;;0.29;98.52;99715.53;1775412;80;21007;-73
2022/12/08 03:16:14;;;;;;;12.80;10.18;;;;;;;0.37;98.26;99715.84;1793477;80;21113;-72
2022/12/08 03:18:46;;;;;;;14.23;10.25;;;;;;;0.35;98.44;99723.43;1763802;80;20994;-73
2022/12/08 03:21:14;;;;;;;15.75;10.78;;;;;;;0.30;98.28;99717.19;1761923;81;21037;-75
2022/12/08 03:23:41;;;;;;;13.10;10.15;;;;;;;0.36;98.07;99720.69;1774147;80;21046;-74
2022/12/08 03:26:12;;;;;;;13.13;11.00;;;;;;;0.39;98.03;99719.66;1793443;80;21040;-74
2022/12/08 03:28:39;;;;;;;14.68;11.60;;;;;;;0.32;98.03;99718.40;1771310;80;21128;-72
2022/12/08 03:31:06;;;;;;;15.95;11.80;;;;;;;0.29;98.03;99723.81;1762417;81;21065;-72
2022/12/08 03:33:36;;;;;;;14.63;12.13;;;;;;;0.37;97.82;99722.38;1736214;81;21599;-75
2022/12/08 03:36:04;;;;;;;20.15;14.53;;;;;;;0.36;97.88;99726.39;1761653;81;21083;-75
2022/12/08 03:38:42;;;;;;;23.15;17.20;;;;;;;0.28;98.14;99720.38;1761972;81;21644;-77
2022/12/08 03:41:17;;;;;;;17.60;12.53;;;;;;;0.27;98.32;99720.03;1789650;80;21854;-75
2022/12/08 03:43:48;;;;;;;14.30;10.63;;;;;;;0.38;98.10;99725.34;1789620;80;21975;-75
2022/12/08 03:46:19;;;;;;;12.03;9.95;;;;;;;0.35;98.14;99726.87;1740350;81;21048;-76
2022/12/08 03:48:45;;;;;;;14.78;10.43;;;;;;;0.30;98.42;99728.12;1768299;80;21038;-76
2022/12/08 03:51:12;;;;;;;10.93;8.80;;;;;;;0.30;98.13;99734.65;1757606;81;21006;-73
2022/12/08 03:53:38;;;;;;;11.88;9.35;;;;;;;0.36;97.82;99737.67;1789196;80;21066;-75
2022/12/08 03:56:08;;;;;;;16.95;13.38;;;;;;;0.33;97.90;99736.59;1790125;80;20964;-77
2022/12/08 03:58:34;;;;;;;18.95;16.95;;;;;;;0.30;98.26;99738.09;1767523;81;21022;-75
2022/12/08 04:01:01;;;;;;;17.32;13.95;;;;;;;0.25;98.19;99741.50;1781520;80;21223;-75
2022/12/08 04:03:28;;;;;;;15.70;12.53;;;;;;;0.33;97.89;99743.13;1756557;81;21072;-74
2022/12/08 04:05:54;;;;;;;17.52;13.18;;;;;;;0.37;97.70;99747.69;1764635;80;21934;-72
2022/12/08 04:08:21;;;;;;;17.15;13.03;;;;;;;0.32;98.18;99748.45;1769138;80;21011;-73
2022/12/08 04:10:47;;;;;;;17.05;12.45;;;;;;;0.28;98.44;99752.21;1756454;81;20989;-73
2022/12/08 04:13:14;;;;;;;17.48;13.08;;;;;;;0.28;98.33;99741.76;1789286;80;21057;-74
2022/12/08 04:15:46;;;;;;;15.40;11.03;;;;;;;0.37;97.87;99738.53;1789594;80;21061;-76
2022/12/08 04:18:13;;;;;;;15.35;11.22;;;;;;;0.43;97.85;99755.11;1765370;80;21193;-73
2022/12/08 04:20:41;;;;;;;16.05;11.55;;;;;;;0.37;97.80;99751.60;1767522;81;21007;-76
2022/12/08 04:23:07;;;;;;;14.73;11.00;;;;;;;0.29;98.04;99747.33;1768324;81;21013;-74
2022/12/08 04:25:34;;;;;;;14.93;11.78;;;;;;;0.31;98.01;99749.37;1770097;81;20989;-73
2022/12/08 04:28:01;;;;;;;16.97;12.70;;;;;;;0.41;97.64;99751.77;1768700;81;21093;-72
2022/12/08 04:30:28;;;;;;;18.67;13.53;;;;;;;0.42;97.75;99746.88;1767457;81;21206;-74
2022/12/08 04:32:55;;;;;;;19.15;14.00;;;;;;;0.37;97.85;99753.73;1789416;80;21107;-72
2022/12/08 04:35:21;;;;;;;19.30;13.80;;;;;;;0.32;98.13;99754.50;1761544;81;20990;-73
2022/12/08 04:37:47;;;;;;;20.12;14.25;;;;;;;0.34;97.98;99753.93;1773065;79;21990;-74
2022/12/08 04:40:14;;;;;;;17.37;13.45;;;;;;;0.41;97.49;99747.84;1767348;79;21033;-73
2022/12/08 04:42:41;;;;;;;21.02;15.03;;;;;;;0.35;97.60;99741.25;1778636;80;21046;-74
2022/12/08 04:45:08;;;;;;;16.87;11.75;;;;;;;0.28;97.74;99750.91;1785481;79;20978;-72
2022/12/08 04:47:35;;;;;;;15.05;11.40;;;;;;;0.25;97.72;99746.73;1790637;80;21492;-74
2022/12/08 04:50:01;;;;;;;14.33;10.80;;;;;;;0.32;97.31;99752.37;1786963;80;21574;-73
2022/12/08 04:52:28;;;;;;;17.37;12.20;;;;;;;0.28;97.46;99752.21;1772299;80;21486;-75
2022/12/08 04:54:55;;;;;;;17.12;12.47;;;;;;;0.16;97.66;99745.55;1787104;79;21497;-77
2022/12/08 04:57:21;;;;;;;16.40;12.30;;;;;;;0.09;97.95;99750.80;1753604;80;20999;-75
2022/12/08 04:59:48;;;;;;;17.52;13.30;;;;;;;0.13;97.78;99750.14;1758578;81;21081;-75
2022/12/08 05:02:16;;;;;;;19.10;14.18;;;;;;;0.19;97.40;99745.80;1767044;81;21024;-76
2022/12/08 05:04:42;;;;;;;23.98;16.17;;;;;;;0.15;97.50;99758.70;1766387;81;21108;-76
2022/12/08 05:07:09;;;;;;;19.27;14.95;;;;;;;0.06;97.90;99760.16;1788931;80;21257;-78
2022/12/08 05:09:36;;;;;;;24.67;14.80;;;;;;;0.07;98.25;99770.97;1789273;80;21033;-76
2022/12/08 05:12:03;;;;;;;21.85;13.85;;;;;;;0.15;97.94;99776.99;1787211;80;21531;-75
2022/12/08 05:14:30;;;;;;;26.90;17.10;;;;;;;0.10;98.20;99777.31;1761295;81;20994;-77
2022/12/08 05:16:58;;;;;;;22.50;15.58;;;;;;;0.03;98.37;99791.70;1785075;80;21080;-76
2022/12/08 05:19:25;;;;;;;21.37;15.32;;;;;;;0.04;98.31;99791.22;1756651;81;21368;-75
2022/12/08 05:21:51;;;;;;;20.02;14.05;;;;;;;0.12;98.04;99787.66;1756466;81;20985;-74
2022/12/08 05:24:19;;;;;;;22.35;15.30;;;;;;;0.11;98.14;99799.04;1791586;78;20919;-72
2022/12/08 05:26:46;;;;;;;21.75;14.93;;;;;;;0.01;98.41;99796.66;1791347;78;21104;-75
2022/12/08 05:29:13;;;;;;;21.75;13.95;;;;;;;-0.05;98.55;99801.81;1789720;80;21008;-75
2022/12/08 05:31:39;;;;;;;22.15;15.15;;;;;;;-0.02;98.35;99799.84;1780363;80;21210;-75
2022/12/08 05:34:06;;;;;;;29.63;16.35;;;;;;;0.03;98.04;99808.67;1785053;80;21001;-76
2022/12/08 05:36:34;;;;;;;25.30;17.00;;;;;;;-0.04;98.43;99806.08;1761886;81;21013;-81
2022/12/08 05:39:02;;;;;;;23.55;16.00;;;;;;;-0.10;98.92;99822.16;1789402;80;21548;-75
2022/12/08 05:41:30;;;;;;;23.98;14.93;;;;;;;-0.12;99.12;99820.11;1766280;80;21037;-74
2022/12/08 05:43:57;;;;;;;20.90;14.38;;;;;;;-0.05;98.65;99818.79;1781517;79;21553;-78
2022/12/08 05:46:23;;;;;;;22.15;14.98;;;;;;;-0.05;98.60;99813.56;1788231;80;20958;-77
2022/12/08 05:48:50;;;;;;;21.57;14.13;;;;;;;-0.13;98.93;99826.28;1789293;80;21108;-75
2022/12/08 05:51:22;;;;;;;19.20;12.88;;;;;;;-0.17;98.65;99823.47;1785244;80;21076;-77
2022/12/08 05:53:50;;;;;;;23.18;15.48;;;;;;;-0.16;98.31;99823.86;1761880;81;20951;-79
2022/12/08 05:56:16;;;;;;;22.70;14.80;;;;;;;-0.21;98.33;99817.16;1787927;77;21005;-79
2022/12/08 05:58:43;;;;;;;26.73;16.32;;;;;;;-0.29;98.79;99817.26;1776974;80;21014;-78
2022/12/08 06:01:28;;;;;;;22.60;14.68;;;;;;;-0.36;99.33;99828.56;1776398;80;21549;-73
2022/12/08 06:03:57;;;;;;;20.60;13.60;;;;;;;-0.29;99.59;99833.78;1763672;80;21068;-72
2022/12/08 06:06:23;;;;;;;29.60;15.63;;;;;;;-0.19;99.17;99832.73;1783261;80;21146;-77
2022/12/08 06:08:50;;;;;;;26.52;14.53;;;;;;;-0.27;98.99;99833.22;1767469;80;21105;-74
2022/12/08 06:11:22;;;;;;;24.02;14.65;;;;;;;-0.35;99.46;99834.62;1767339;81;21084;-75
2022/12/08 06:13:49;;;;;;;22.98;14.43;;;;;;;-0.33;99.17;99838.83;1786086;78;21041;-74
2022/12/08 06:16:15;;;;;;;30.35;15.48;;;;;;;-0.29;98.80;99840.31;1789202;80;21068;-73
2022/12/08 06:18:42;;;;;;;28.60;17.07;;;;;;;-0.28;99.07;99841.14;1789347;80;21028;-77
2022/12/08 06:21:11;;;;;;;21.85;14.93;;;;;;;-0.30;99.60;99851.67;1788267;79;21125;-76
2022/12/08 06:23:37;;;;;;;31.97;17.85;;;;;;;-0.27;99.96;99851.94;1788372;78;21028;-75
2022/12/08 06:26:09;;;;;;;23.85;16.52;;;;;;;-0.22;99.76;99854.63;1786032;79;21009;-76
2022/12/08 06:28:35;;;;;;;28.60;17.48;;;;;;;-0.08;99.35;99860.76;1783627;80;21529;-76
2022/12/08 06:31:11;;;;;;;34.50;19.12;;;;;;;-0.08;99.44;99861.63;1783583;80;21049;-76
2022/12/08 06:33:37;;;;;;;26.27;17.12;;;;;;;-0.10;99.57;99863.46;1757935;79;21198;-75
2022/12/08 06:36:05;;;;;;;25.08;17.62;;;;;;;-0.12;99.22;99867.95;1794832;79;21037;-75
2022/12/08 06:38:32;;;;;;;22.17;15.30;;;;;;;-0.05;98.79;99865.80;1791278;80;20989;-75
2022/12/08 06:40:59;;;;;;;21.70;14.45;;;;;;;0.00;98.76;99875.50;1761698;80;21006;-74
2022/12/08 06:43:25;;;;;;;30.27;15.95;;;;;;;-0.05;98.97;99881.47;1790712;79;21100;-74
2022/12/08 06:45:52;;;;;;;22.48;15.35;;;;;;;-0.12;99.23;99878.87;1806943;79;21874;-75
2022/12/08 06:48:19;;;;;;;22.52;15.48;;;;;;;-0.11;99.25;99885.30;1797172;78;21057;-76
2022/12/08 06:50:45;;;;;;;20.15;14.73;;;;;;;0.01;98.84;99885.47;1783363;80;21038;-75
2022/12/08 06:53:13;;;;;;;23.75;15.83;;;;;;;0.03;98.67;99883.59;1771529;80;20979;-75
2022/12/08 06:55:49;;;;;;;24.40;14.98;;;;;;;-0.03;98.73;99888.27;1786805;80;20986;-76
2022/12/08 06:58:15;;;;;;;21.12;14.53;;;;;;;-0.08;98.54;99878.59;1792386;79;21107;-76
2022/12/08 07:00:42;;;;;;;21.70;15.05;;;;;;;-0.02;97.97;99875.59;1783396;80;21023;-78
2022/12/08 07:03:09;;;;;;;25.80;16.35;;;;;;;-0.01;97.70;99893.40;1792771;80;21013;-76
2022/12/08 07:05:36;;;;;;;28.13;16.30;;;;;;;-0.06;98.21;99888.48;1792413;80;21515;-73
2022/12/08 07:08:04;;;;;;;26.33;16.52;;;;;;;-0.07;98.48;99889.88;1771499;80;21057;-76
2022/12/08 07:10:30;;;;;;;23.05;16.75;;;;;;;-0.05;98.45;99887.52;1790261;80;21206;-75
2022/12/08 07:12:57;;;;;;;20.50;14.83;;;;;;;0.05;97.74;99893.48;1791753;80;21032;-76
2022/12/08 07:15:24;;;;;;;23.15;15.78;;;;;;;0.01;97.68;99902.45;1789138;80;21034;-74
2022/12/08 07:17:50;;;;;;;26.95;16.05;;;;;;;-0.09;97.89;99899.10;1768495;80;21042;-77
2022/12/08 07:20:17;;;;;;;26.62;18.00;;;;;;;-0.10;98.15;99898.72;1763922;80;21082;-76
2022/12/08 07:22:51;;;;;;;25.68;17.23;;;;;;;0.01;97.96;99904.59;1751601;81;21512;-75
2022/12/08 07:25:18;;;;;;;34.67;18.75;;;;;;;0.00;98.09;99896.39;1794828;80;21033;-76
2022/12/08 07:27:44;;;;;;;28.10;19.02;;;;;;;-0.04;98.43;99901.41;1792936;79;21030;-76
2022/12/08 07:30:12;;;;;;;26.05;17.15;;;;;;;-0.03;98.24;99896.58;1792648;80;21009;-76
2022/12/08 07:32:39;;;;;;;33.28;20.25;;;;;;;0.03;97.86;99904.50;1759349;81;21065;-78
2022/12/08 07:35:07;;;;;;;27.17;19.15;;;;;;;-0.02;97.83;99913.46;1782159;80;21244;-75
2022/12/08 07:37:34;;;;;;;24.55;16.35;;;;;;;-0.08;98.40;99916.91;1771270;79;21062;-76
2022/12/08 07:40:02;;;;;;;26.15;17.50;;;;;;;-0.06;98.45;99912.42;1756625;80;21494;-76
2022/12/08 07:42:28;;;;;;;28.87;18.90;;;;;;;0.07;98.39;99921.17;1769548;80;20990;-77
2022/12/08 07:44:55;;;;;;;34.67;20.88;;;;;;;0.11;98.34;99919.21;1741605;81;21096;-78
2022/12/08 07:47:21;;;;;;;35.25;21.07;;;;;;;0.08;98.58;99928.09;1738565;82;21186;-75
2022/12/08 07:49:47;;;;;;;28.30;17.55;;;;;;;0.08;98.67;99930.70;1739018;82;21055;-77
2022/12/08 07:52:14;;;;;;;29.07;19.12;;;;;;;0.17;98.28;99928.82;1740918;82;21096;-77
2022/12/08 07:54:40;;;;;;;30.32;19.45;;;;;;;0.28;97.49;99922.06;1739563;82;21436;-77
2022/12/08 07:57:08;;;;;;;31.33;20.02;;;;;;;0.24;97.44;99924.03;1740103;82;21118;-77
2022/12/08 07:59:35;;;;;;;31.52;19.32;;;;;;;0.17;97.36;99921.43;1740252;81;21203;-80
2022/12/08 08:02:01;;;;;;;31.02;21.37;;;;;;;0.12;97.36;99928.27;1720108;82;21071;-79
2022/12/08 08:04:27;;;;;;;28.30;21.33;;;;;;;0.16;97.13;99933.66;1738826;81;21048;-80
2022/12/08 08:06:54;;;;;;;34.73;21.93;;;;;;;0.11;97.23;99929.66;1737971;82;21032;-77
2022/12/08 08:09:20;;;;;;;34.00;22.00;;;;;;;0.02;97.75;99936.77;1737983;82;21099;-76
2022/12/08 08:11:47;;;;;;;37.65;22.55;;;;;;;0.03;97.98;99947.59;1738341;82;21260;-77
2022/12/08 08:14:13;;;;;;;30.02;20.15;;;;;;;0.15;97.97;99942.42;1738477;82;21068;-76
2022/12/08 08:16:45;;;;;;;34.43;21.10;;;;;;;0.22;98.46;99940.75;1739636;81;21056;-77
2022/12/08 08:19:08;;;;;;;28.60;17.73;;;;;;;0.24;98.46;99946.24;1739840;81;21045;-74
2022/12/08 08:21:34;;;;;;;32.98;18.62;;;;;;;0.26;98.52;99946.98;1741492;80;20976;-79
2022/12/08 08:24:01;;;;;;;33.63;20.95;;;;;;;0.38;98.00;99942.27;1741095;82;21076;-78
2022/12/08 08:26:27;;;;;;;35.48;21.77;;;;;;;0.49;97.45;99945.52;1739747;82;20941;-77
2022/12/08 08:28:54;;;;;;;38.58;22.20;;;;;;;0.49;97.30;99954.66;1739674;82;21036;-76
2022/12/08 08:31:25;;;;;;;33.50;21.15;;;;;;;0.48;97.39;99958.67;1739879;81;21080;-79
2022/12/08 08:33:52;;;;;;;33.38;21.80;;;;;;;0.48;96.75;99961.29;1770752;80;21023;-77
2022/12/08 08:36:20;;;;;;;32.17;22.05;;;;;;;0.53;95.75;99954.83;1784808;78;22112;-79
2022/12/08 08:38:48;;;;;;;36.20;23.98;;;;;;;0.45;95.58;99953.19;1783858;79;21568;-76
2022/12/08 08:41:14;;;;;;;33.90;22.87;;;;;;;0.30;95.89;99948.46;1780418;80;21073;-71
2022/12/08 08:43:41;;;;;;;29.40;19.20;;;;;;;0.26;96.60;99943.54;1752756;78;21033;-72
2022/12/08 08:46:08;;;;;;;30.40;18.70;;;;;;;0.33;96.78;99946.14;1768092;79;21007;-74
2022/12/08 08:49:15;;;;;;;35.33;20.20;;;;;;;0.53;96.05;99945.69;1845347;76;22644;-76
2022/12/08 08:51:41;;;;;;;28.38;18.42;;;;;;;0.45;96.04;99941.90;1811327;77;21481;-71
2022/12/08 08:54:07;;;;;;;28.30;18.92;;;;;;;0.39;96.12;99952.28;1805378;77;21827;-72
2022/12/08 08:56:34;;;;;;;35.38;20.77;;;;;;;0.33;95.47;99943.05;1809000;77;20899;-71
2022/12/08 08:59:01;;;;;;;39.40;21.90;;;;;;;0.37;95.26;99948.92;1809425;77;21017;-74
2022/12/08 09:01:28;;;;;;;40.85;23.75;;;;;;;0.29;95.73;99941.58;1813948;77;20993;-69
2022/12/08 09:03:55;;;;;;;34.35;21.52;;;;;;;0.28;96.61;99939.87;1813318;78;22356;-69
2022/12/08 09:06:22;;;;;;;34.33;23.20;;;;;;;0.29;96.40;99942.88;1834836;77;21767;-72
2022/12/08 09:08:49;;;;;;;32.67;20.90;;;;;;;0.46;96.18;99946.17;1812839;77;20992;-70
2022/12/08 09:11:17;;;;;;;37.83;23.30;;;;;;;0.50;96.20;99943.28;1826968;77;20917;-71
2022/12/08 09:13:45;;;;;;;40.35;24.85;;;;;;;0.47;96.22;99943.95;1812702;77;21010;-71
2022/12/08 09:16:12;;;;;;;33.28;21.90;;;;;;;0.45;96.57;99950.57;1765064;80;21037;-72
2022/12/08 09:18:38;;;;;;;30.52;20.12;;;;;;;0.57;96.49;99953.69;1806662;77;21049;-72
2022/12/08 09:21:07;;;;;;;31.70;21.27;;;;;;;0.71;95.56;99951.97;1817781;77;21032;-71
2022/12/08 09:23:34;;;;;;;35.90;23.32;;;;;;;0.67;95.12;99952.63;1815197;79;21037;-75
2022/12/08 09:26:02;;;;;;;37.20;24.87;;;;;;;0.57;95.33;99947.16;1813331;77;21458;-72
2022/12/08 09:28:29;;;;;;;38.80;23.40;;;;;;;0.50;95.70;99958.11;1809809;77;21033;-74
2022/12/08 09:30:55;;;;;;;34.80;21.02;;;;;;;0.53;95.87;99953.52;1809780;77;21179;-74
2022/12/08 09:33:22;;;;;;;32.03;19.40;;;;;;;0.69;95.60;99953.84;1809724;77;21002;-71
2022/12/08 09:35:48;;;;;;;39.70;22.37;;;;;;;0.69;95.42;99948.13;1814033;77;21073;-75
2022/12/08 09:38:15;;;;;;;42.38;23.32;;;;;;;0.66;95.61;99951.44;1803950;77;21049;-76
2022/12/08 09:40:50;;;;;;;31.70;20.57;;;;;;;0.66;95.89;99954.89;1809987;78;21042;-72
2022/12/08 09:43:50;;;;;;;35.70;19.65;;;;;;;0.73;95.84;99952.70;1821287;77;21109;-73
2022/12/08 09:46:16;;;;;;;35.78;22.45;;;;;;;0.87;95.32;99952.66;1817334;77;21010;-78
2022/12/08 09:48:56;;;;;;;39.80;22.17;;;;;;;0.87;95.55;99947.42;1789255;78;21032;-76
2022/12/08 09:51:24;;;;;;;33.98;19.90;;;;;;;0.88;95.60;99949.55;1793502;78;21029;-76
2022/12/08 09:54:11;;;;;;;32.20;20.55;;;;;;;0.87;95.51;99949.17;1811377;78;21045;-73
2022/12/08 09:56:37;;;;;;;32.42;22.17;;;;;;;0.93;94.64;99948.80;1792790;78;21046;-75
2022/12/08 09:59:21;;;;;;;45.92;24.05;;;;;;;1.00;94.22;99951.83;1782334;78;21025;-77
2022/12/08 10:01:48;;;;;;;37.30;21.10;;;;;;;0.97;94.39;99953.71;1789937;78;21017;-77
2022/12/08 10:04:31;;;;;;;32.25;19.73;;;;;;;0.92;94.19;99960.19;1820965;78;21017;-82
2022/12/08 10:07:15;;;;;;;34.78;20.37;;;;;;;0.81;93.48;99957.43;1798098;78;21092;-74
2022/12/08 10:10:08;;;;;;;29.10;19.27;;;;;;;0.84;92.98;99944.99;1795081;78;21867;-78
2022/12/08 10:12:51;;;;;;;30.80;20.02;;;;;;;0.84;93.22;99944.16;1813483;78;21052;-78
2022/12/08 10:16:05;;;;;;;37.35;22.22;;;;;;;0.73;93.31;99942.23;1821060;78;21544;-76
2022/12/08 10:18:32;;;;;;;36.23;21.33;;;;;;;0.62;93.82;99944.27;1793514;79;20930;-79
2022/12/08 10:21:15;;;;;;;43.35;24.12;;;;;;;0.65;94.04;99938.81;1815149;78;21016;-80
2022/12/08 10:23:45;;;;;;;40.52;23.90;;;;;;;0.76;93.83;99936.82;1815759;78;21474;-80
2022/12/08 10:26:15;;;;;;;43.63;26.50;;;;;;;0.76;93.88;99945.97;1817078;78;21492;-74
2022/12/08 10:28:41;;;;;;;43.13;24.52;;;;;;;0.69;94.27;99946.83;1821105;78;21065;-76
2022/12/08 10:31:20;;;;;;;44.10;25.05;;;;;;;0.67;94.65;99943.95;1802594;78;21012;-71
2022/12/08 10:33:55;;;;;;;33.55;20.90;;;;;;;0.70;94.60;99944.59;1785553;80;21083;-76
2022/12/08 10:36:22;;;;;;;34.15;22.27;;;;;;;0.86;93.88;99941.80;1761969;76;21540;-84
2022/12/08 10:38:48;;;;;;;35.90;21.02;;;;;;;0.78;93.51;99953.25;1775578;75;20997;-84
2022/12/08 10:41:18;;;;;;;37.50;21.85;;;;;;;0.64;93.36;99954.59;1781503;78;21027;-79
2022/12/08 10:43:52;;;;;;;34.25;20.97;;;;;;;0.52;93.90;99954.48;1822327;78;21037;-78
2022/12/08 10:46:26;;;;;;;35.00;21.07;;;;;;;0.51;93.82;99954.57;1801973;78;21005;-78
2022/12/08 10:49:07;;;;;;;38.28;22.95;;;;;;;0.57;93.65;99952.86;1812887;78;21278;-76
2022/12/08 10:51:37;;;;;;;49.10;24.27;;;;;;;0.51;93.89;99958.49;1794042;78;20998;-77
2022/12/08 10:54:05;;;;;;;39.20;22.70;;;;;;;0.44;94.48;99958.51;1802088;78;21644;-79
2022/12/08 10:56:32;;;;;;;42.70;23.57;;;;;;;0.36;94.60;99948.54;1801864;78;21141;-80
2022/12/08 10:59:17;;;;;;;37.33;23.62;;;;;;;0.42;94.50;99951.23;1801491;78;21065;-80
2022/12/08 11:01:49;;;;;;;36.75;22.37;;;;;;;0.51;94.44;99958.02;1805940;78;21118;-78
2022/12/08 11:04:34;;;;;;;37.55;21.60;;;;;;;0.46;95.16;99942.25;1757811;80;21072;-79
2022/12/08 11:07:00;;;;;;;34.63;20.82;;;;;;;0.51;95.04;99957.19;1781429;78;21041;-78
2022/12/08 11:09:47;;;;;;;36.80;22.13;;;;;;;0.49;95.11;99953.36;1751888;78;21037;-77
2022/12/08 11:12:19;;;;;;;36.98;21.65;;;;;;;0.61;94.69;99956.95;1799198;78;21101;-78
2022/12/08 11:14:52;;;;;;;39.27;24.12;;;;;;;0.64;94.56;99952.84;1813083;78;22233;-80
2022/12/08 11:17:25;;;;;;;35.45;21.85;;;;;;;0.58;94.57;99951.47;1817823;78;21038;-79
2022/12/08 11:20:01;;;;;;;;;;;;;;;0.51;94.47;99946.25;1792946;78;21056;-78
2022/12/08 11:22:36;;;;;;;41.80;24.07;;;;;;;0.52;94.33;99953.17;1789073;78;20476;-78
2022/12/08 11:25:20;;;;;;;45.08;23.57;;;;;;;0.56;94.13;99958.56;1796996;78;21092;-81
2022/12/08 11:27:49;;;;;;;30.60;18.20;;;;;;;0.50;94.44;99956.36;1804219;78;21098;-78
2022/12/08 11:30:26;;;;;;;36.63;20.92;;;;;;;0.39;94.44;99950.49;1818607;78;21002;-77
2022/12/08 11:33:16;;;;;;;36.83;20.85;;;;;;;0.32;94.21;99951.81;1807761;78;21037;-80
2022/12/08 11:36:03;;;;;;;38.85;23.02;;;;;;;0.36;93.88;99940.70;1741182;80;21051;-78
2022/12/08 11:38:31;;;;;;;49.38;26.15;;;;;;;0.31;94.19;99937.53;1808533;78;21032;-79
2022/12/08 11:41:14;;;;;;;52.75;27.87;;;;;;;0.28;95.19;99937.27;1818174;78;21514;-77
2022/12/08 11:43:52;;;;;;;46.00;25.92;;;;;;;0.33;95.61;99935.21;1804458;78;21007;-80
2022/12/08 11:46:42;;;;;;;40.78;21.97;;;;;;;0.41;95.28;99942.56;1824700;78;20958;-79
2022/12/08 11:49:12;;;;;;;42.20;23.27;;;;;;;0.51;94.60;99941.02;1799248;78;21054;-82